sensor_id;sensor_type;location;lat;lon;timestamp;P1;durP1;ratioP1;P2;durP2;ratioP2
71941;SDS011;59997;53.300;-6.260;2023-01-06T00:00:17;8.75;;;1.00;;
71941;SDS011;59997;53.300;-6.260;2023-01-06T00:02:43;8.67;;;1.10;;
71941;SDS011;59997;53.300;-6.260;2023-01-06T00:05:11;10.73;;;0.77;;
71941;SDS011;59997;53.300;-6.260;2023-01-06T00:07:37;8.73;;;0.73;;
71941;SDS011;59997;53.300;-6.260;2023-01-06T00:10:03;9.40;;;1.20;;
71941;SDS011;59997;53.300;-6.260;2023-01-06T00:12:29;9.30;;;1.20;;
71941;SDS011;59997;53.300;-6.260;2023-01-06T00:14:54;12.10;;;1.60;;
71941;SDS011;59997;53.300;-6.260;2023-01-06T00:17:20;12.10;;;1.02;;
71941;SDS011;59997;53.300;-6.260;2023-01-06T00:19:45;13.67;;;1.17;;
71941;SDS011;59997;53.300;-6.260;2023-01-06T00:22:11;15.53;;;1.57;;
71941;SDS011;59997;53.300;-6.260;2023-01-06T00:24:36;8.00;;;0.95;;
71941;SDS011;59997;53.300;-6.260;2023-01-06T00:27:02;16.77;;;1.50;;
71941;SDS011;59997;53.300;-6.260;2023-01-06T00:29:28;7.40;;;0.70;;
71941;SDS011;59997;53.300;-6.260;2023-01-06T00:31:53;10.30;;;1.45;;
71941;SDS011;59997;53.300;-6.260;2023-01-06T00:34:19;10.27;;;1.30;;
71941;SDS011;59997;53.300;-6.260;2023-01-06T00:36:44;11.70;;;1.30;;
71941;SDS011;59997;53.300;-6.260;2023-01-06T00:39:13;9.53;;;1.20;;
71941;SDS011;59997;53.300;-6.260;2023-01-06T00:41:39;7.60;;;0.80;;
71941;SDS011;59997;53.300;-6.260;2023-01-06T00:44:23;12.88;;;1.38;;
71941;SDS011;59997;53.300;-6.260;2023-01-06T00:46:49;15.33;;;1.40;;
71941;SDS011;59997;53.300;-6.260;2023-01-06T00:49:14;12.73;;;1.13;;
71941;SDS011;59997;53.300;-6.260;2023-01-06T00:51:40;16.77;;;1.83;;
71941;SDS011;59997;53.300;-6.260;2023-01-06T00:54:06;12.67;;;1.40;;
71941;SDS011;59997;53.300;-6.260;2023-01-06T00:56:40;10.20;;;0.80;;
71941;SDS011;59997;53.300;-6.260;2023-01-06T00:59:07;16.45;;;1.75;;
71941;SDS011;59997;53.300;-6.260;2023-01-06T01:01:33;14.82;;;1.50;;
71941;SDS011;59997;53.300;-6.260;2023-01-06T01:03:59;9.98;;;1.10;;
71941;SDS011;59997;53.300;-6.260;2023-01-06T01:06:26;13.73;;;1.80;;
71941;SDS011;59997;53.300;-6.260;2023-01-06T01:08:55;11.05;;;1.20;;
71941;SDS011;59997;53.300;-6.260;2023-01-06T01:11:21;10.70;;;1.17;;
71941;SDS011;59997;53.300;-6.260;2023-01-06T01:14:07;17.77;;;2.20;;
71941;SDS011;59997;53.300;-6.260;2023-01-06T01:16:33;7.32;;;0.82;;
71941;SDS011;59997;53.300;-6.260;2023-01-06T01:18:58;9.93;;;0.70;;
71941;SDS011;59997;53.300;-6.260;2023-01-06T01:21:24;11.23;;;1.88;;
71941;SDS011;59997;53.300;-6.260;2023-01-06T01:23:49;7.13;;;0.83;;
71941;SDS011;59997;53.300;-6.260;2023-01-06T01:26:15;15.05;;;1.23;;
71941;SDS011;59997;53.300;-6.260;2023-01-06T01:28:40;16.60;;;1.20;;
71941;SDS011;59997;53.300;-6.260;2023-01-06T01:31:06;11.00;;;0.90;;
71941;SDS011;59997;53.300;-6.260;2023-01-06T01:33:31;9.93;;;1.13;;
71941;SDS011;59997;53.300;-6.260;2023-01-06T01:35:57;17.50;;;1.50;;
71941;SDS011;59997;53.300;-6.260;2023-01-06T01:38:30;12.27;;;1.17;;
71941;SDS011;59997;53.300;-6.260;2023-01-06T01:40:55;8.83;;;1.20;;
71941;SDS011;59997;53.300;-6.260;2023-01-06T01:43:20;13.00;;;1.17;;
71941;SDS011;59997;53.300;-6.260;2023-01-06T01:45:47;16.10;;;1.43;;
71941;SDS011;59997;53.300;-6.260;2023-01-06T01:48:32;10.63;;;1.42;;
71941;SDS011;59997;53.300;-6.260;2023-01-06T01:51:00;11.90;;;1.13;;
71941;SDS011;59997;53.300;-6.260;2023-01-06T01:53:29;14.18;;;1.50;;
71941;SDS011;59997;53.300;-6.260;2023-01-06T01:55:59;20.17;;;1.27;;
71941;SDS011;59997;53.300;-6.260;2023-01-06T01:58:33;7.93;;;0.87;;
71941;SDS011;59997;53.300;-6.260;2023-01-06T02:01:19;11.10;;;1.20;;
71941;SDS011;59997;53.300;-6.260;2023-01-06T02:03:45;17.92;;;1.60;;
71941;SDS011;59997;53.300;-6.260;2023-01-06T02:06:18;13.30;;;1.60;;
71941;SDS011;59997;53.300;-6.260;2023-01-06T02:08:50;10.73;;;1.40;;
71941;SDS011;59997;53.300;-6.260;2023-01-06T02:11:20;14.45;;;1.25;;
71941;SDS011;59997;53.300;-6.260;2023-01-06T02:13:49;10.03;;;1.20;;
71941;SDS011;59997;53.300;-6.260;2023-01-06T02:16:27;9.65;;;0.70;;
71941;SDS011;59997;53.300;-6.260;2023-01-06T02:21:40;7.47;;;0.70;;
71941;SDS011;59997;53.300;-6.260;2023-01-06T02:24:31;7.57;;;0.93;;
71941;SDS011;59997;53.300;-6.260;2023-01-06T02:33:00;13.25;;;1.65;;
71941;SDS011;59997;53.300;-6.260;2023-01-06T02:50:08;12.38;;;1.40;;
71941;SDS011;59997;53.300;-6.260;2023-01-06T02:52:58;9.65;;;0.88;;
71941;SDS011;59997;53.300;-6.260;2023-01-06T03:01:05;7.45;;;0.95;;
71941;SDS011;59997;53.300;-6.260;2023-01-06T03:03:35;9.00;;;1.08;;
71941;SDS011;59997;53.300;-6.260;2023-01-06T03:06:05;10.30;;;1.15;;
71941;SDS011;59997;53.300;-6.260;2023-01-06T03:08:34;9.60;;;0.90;;
71941;SDS011;59997;53.300;-6.260;2023-01-06T03:11:01;6.43;;;0.60;;
71941;SDS011;59997;53.300;-6.260;2023-01-06T03:16:11;13.30;;;1.23;;
71941;SDS011;59997;53.300;-6.260;2023-01-06T03:18:37;8.25;;;1.08;;
71941;SDS011;59997;53.300;-6.260;2023-01-06T03:21:07;14.50;;;0.95;;
71941;SDS011;59997;53.300;-6.260;2023-01-06T03:23:37;12.35;;;1.88;;
71941;SDS011;59997;53.300;-6.260;2023-01-06T03:26:04;13.43;;;1.35;;
71941;SDS011;59997;53.300;-6.260;2023-01-06T03:28:30;13.20;;;0.93;;
71941;SDS011;59997;53.300;-6.260;2023-01-06T03:46:59;12.00;;;1.40;;
71941;SDS011;59997;53.300;-6.260;2023-01-06T03:49:30;9.25;;;0.80;;
71941;SDS011;59997;53.300;-6.260;2023-01-06T03:52:09;12.43;;;0.90;;
71941;SDS011;59997;53.300;-6.260;2023-01-06T03:57:27;7.97;;;0.65;;
71941;SDS011;59997;53.300;-6.260;2023-01-06T04:00:18;7.63;;;0.68;;
71941;SDS011;59997;53.300;-6.260;2023-01-06T04:02:47;11.40;;;1.23;;
71941;SDS011;59997;53.300;-6.260;2023-01-06T04:05:17;11.38;;;1.00;;
71941;SDS011;59997;53.300;-6.260;2023-01-06T04:07:47;7.72;;;0.80;;
71941;SDS011;59997;53.300;-6.260;2023-01-06T04:10:14;11.35;;;1.10;;
71941;SDS011;59997;53.300;-6.260;2023-01-06T04:12:42;11.10;;;1.02;;
71941;SDS011;59997;53.300;-6.260;2023-01-06T04:17:38;10.70;;;0.88;;
71941;SDS011;59997;53.300;-6.260;2023-01-06T04:20:06;6.63;;;0.80;;
71941;SDS011;59997;53.300;-6.260;2023-01-06T04:22:33;11.05;;;1.42;;
71941;SDS011;59997;53.300;-6.260;2023-01-06T04:24:59;12.55;;;0.95;;
71941;SDS011;59997;53.300;-6.260;2023-01-06T04:27:25;11.90;;;0.73;;
71941;SDS011;59997;53.300;-6.260;2023-01-06T04:29:50;9.60;;;1.10;;
71941;SDS011;59997;53.300;-6.260;2023-01-06T04:32:15;7.53;;;0.70;;
71941;SDS011;59997;53.300;-6.260;2023-01-06T04:34:41;14.23;;;0.90;;
71941;SDS011;59997;53.300;-6.260;2023-01-06T04:37:06;5.83;;;0.47;;
71941;SDS011;59997;53.300;-6.260;2023-01-06T04:39:32;7.80;;;0.47;;
71941;SDS011;59997;53.300;-6.260;2023-01-06T04:41:57;12.07;;;2.10;;
71941;SDS011;59997;53.300;-6.260;2023-01-06T04:44:23;11.43;;;1.17;;
71941;SDS011;59997;53.300;-6.260;2023-01-06T04:46:49;14.23;;;0.80;;
71941;SDS011;59997;53.300;-6.260;2023-01-06T04:49:14;10.48;;;1.25;;
71941;SDS011;59997;53.300;-6.260;2023-01-06T04:51:40;15.57;;;1.10;;
71941;SDS011;59997;53.300;-6.260;2023-01-06T04:54:05;9.73;;;1.00;;
71941;SDS011;59997;53.300;-6.260;2023-01-06T04:56:31;12.23;;;0.93;;
71941;SDS011;59997;53.300;-6.260;2023-01-06T04:58:56;11.10;;;0.65;;
71941;SDS011;59997;53.300;-6.260;2023-01-06T05:01:22;7.67;;;0.83;;
71941;SDS011;59997;53.300;-6.260;2023-01-06T05:03:48;10.80;;;1.05;;
71941;SDS011;59997;53.300;-6.260;2023-01-06T05:06:14;7.40;;;0.57;;
71941;SDS011;59997;53.300;-6.260;2023-01-06T05:08:41;11.65;;;1.10;;
71941;SDS011;59997;53.300;-6.260;2023-01-06T05:11:11;14.25;;;1.15;;
71941;SDS011;59997;53.300;-6.260;2023-01-06T05:13:41;8.77;;;1.33;;
71941;SDS011;59997;53.300;-6.260;2023-01-06T05:16:07;9.20;;;0.73;;
71941;SDS011;59997;53.300;-6.260;2023-01-06T05:18:37;10.13;;;0.77;;
71941;SDS011;59997;53.300;-6.260;2023-01-06T05:21:03;9.97;;;1.13;;
71941;SDS011;59997;53.300;-6.260;2023-01-06T05:23:29;11.80;;;0.70;;
71941;SDS011;59997;53.300;-6.260;2023-01-06T05:25:54;7.25;;;0.68;;
71941;SDS011;59997;53.300;-6.260;2023-01-06T05:28:20;9.63;;;0.83;;
71941;SDS011;59997;53.300;-6.260;2023-01-06T05:30:46;8.82;;;0.55;;
71941;SDS011;59997;53.300;-6.260;2023-01-06T05:33:12;9.70;;;0.80;;
71941;SDS011;59997;53.300;-6.260;2023-01-06T05:35:38;9.98;;;1.17;;
71941;SDS011;59997;53.300;-6.260;2023-01-06T05:38:03;10.83;;;0.87;;
71941;SDS011;59997;53.300;-6.260;2023-01-06T05:40:29;7.82;;;0.68;;
71941;SDS011;59997;53.300;-6.260;2023-01-06T05:42:54;7.03;;;0.97;;
71941;SDS011;59997;53.300;-6.260;2023-01-06T05:45:21;6.32;;;0.47;;
71941;SDS011;59997;53.300;-6.260;2023-01-06T05:47:47;7.97;;;0.93;;
71941;SDS011;59997;53.300;-6.260;2023-01-06T05:50:13;8.57;;;0.73;;
71941;SDS011;59997;53.300;-6.260;2023-01-06T05:52:39;7.73;;;0.70;;
71941;SDS011;59997;53.300;-6.260;2023-01-06T05:55:04;7.57;;;0.43;;
71941;SDS011;59997;53.300;-6.260;2023-01-06T05:57:34;6.35;;;0.60;;
71941;SDS011;59997;53.300;-6.260;2023-01-06T06:00:00;5.77;;;0.50;;
71941;SDS011;59997;53.300;-6.260;2023-01-06T06:02:27;8.85;;;0.68;;
71941;SDS011;59997;53.300;-6.260;2023-01-06T06:04:53;6.93;;;0.73;;
71941;SDS011;59997;53.300;-6.260;2023-01-06T06:07:19;7.03;;;0.53;;
71941;SDS011;59997;53.300;-6.260;2023-01-06T06:09:44;9.55;;;0.80;;
71941;SDS011;59997;53.300;-6.260;2023-01-06T06:12:09;5.93;;;0.37;;
71941;SDS011;59997;53.300;-6.260;2023-01-06T06:14:36;4.60;;;0.30;;
71941;SDS011;59997;53.300;-6.260;2023-01-06T06:17:01;9.33;;;0.70;;
71941;SDS011;59997;53.300;-6.260;2023-01-06T06:19:27;7.33;;;1.63;;
71941;SDS011;59997;53.300;-6.260;2023-01-06T06:21:52;3.87;;;0.40;;
71941;SDS011;59997;53.300;-6.260;2023-01-06T06:24:18;6.13;;;0.50;;
71941;SDS011;59997;53.300;-6.260;2023-01-06T06:26:43;7.97;;;0.82;;
71941;SDS011;59997;53.300;-6.260;2023-01-06T06:29:09;8.10;;;0.67;;
71941;SDS011;59997;53.300;-6.260;2023-01-06T06:31:35;6.47;;;0.68;;
71941;SDS011;59997;53.300;-6.260;2023-01-06T06:34:01;4.95;;;0.55;;
71941;SDS011;59997;53.300;-6.260;2023-01-06T06:36:27;7.05;;;0.65;;
71941;SDS011;59997;53.300;-6.260;2023-01-06T06:38:54;9.77;;;0.50;;
71941;SDS011;59997;53.300;-6.260;2023-01-06T06:41:20;4.97;;;0.40;;
71941;SDS011;59997;53.300;-6.260;2023-01-06T06:43:47;6.53;;;0.57;;
71941;SDS011;59997;53.300;-6.260;2023-01-06T06:46:14;9.20;;;0.63;;
71941;SDS011;59997;53.300;-6.260;2023-01-06T06:48:39;6.35;;;0.50;;
71941;SDS011;59997;53.300;-6.260;2023-01-06T06:51:06;4.03;;;0.40;;
71941;SDS011;59997;53.300;-6.260;2023-01-06T06:53:36;8.98;;;0.73;;
71941;SDS011;59997;53.300;-6.260;2023-01-06T06:56:03;6.78;;;1.02;;
71941;SDS011;59997;53.300;-6.260;2023-01-06T06:58:29;11.65;;;0.60;;
71941;SDS011;59997;53.300;-6.260;2023-01-06T07:00:55;5.27;;;0.30;;
71941;SDS011;59997;53.300;-6.260;2023-01-06T07:03:21;8.73;;;0.40;;
71941;SDS011;59997;53.300;-6.260;2023-01-06T07:05:47;9.60;;;0.85;;
71941;SDS011;59997;53.300;-6.260;2023-01-06T07:08:14;7.07;;;0.40;;
71941;SDS011;59997;53.300;-6.260;2023-01-06T07:10:39;6.68;;;0.32;;
71941;SDS011;59997;53.300;-6.260;2023-01-06T07:13:05;4.17;;;0.50;;
71941;SDS011;59997;53.300;-6.260;2023-01-06T07:15:30;7.60;;;0.60;;
71941;SDS011;59997;53.300;-6.260;2023-01-06T07:18:00;4.75;;;0.55;;
71941;SDS011;59997;53.300;-6.260;2023-01-06T07:20:27;6.40;;;0.57;;
71941;SDS011;59997;53.300;-6.260;2023-01-06T07:22:54;9.35;;;0.95;;
71941;SDS011;59997;53.300;-6.260;2023-01-06T07:25:20;5.68;;;0.30;;
71941;SDS011;59997;53.300;-6.260;2023-01-06T07:27:46;6.60;;;0.40;;
71941;SDS011;59997;53.300;-6.260;2023-01-06T07:30:11;6.50;;;1.27;;
71941;SDS011;59997;53.300;-6.260;2023-01-06T07:32:37;2.75;;;0.65;;
71941;SDS011;59997;53.300;-6.260;2023-01-06T07:35:03;6.57;;;0.50;;
71941;SDS011;59997;53.300;-6.260;2023-01-06T07:37:28;8.95;;;0.90;;
71941;SDS011;59997;53.300;-6.260;2023-01-06T07:39:54;6.23;;;0.30;;
71941;SDS011;59997;53.300;-6.260;2023-01-06T07:42:19;4.27;;;0.30;;
71941;SDS011;59997;53.300;-6.260;2023-01-06T07:44:45;6.17;;;0.30;;
71941;SDS011;59997;53.300;-6.260;2023-01-06T07:47:10;4.63;;;0.38;;
71941;SDS011;59997;53.300;-6.260;2023-01-06T07:49:36;5.53;;;0.40;;
71941;SDS011;59997;53.300;-6.260;2023-01-06T07:52:01;5.43;;;0.50;;
71941;SDS011;59997;53.300;-6.260;2023-01-06T07:54:26;4.37;;;0.40;;
71941;SDS011;59997;53.300;-6.260;2023-01-06T07:56:52;3.75;;;0.30;;
71941;SDS011;59997;53.300;-6.260;2023-01-06T07:59:17;3.50;;;0.40;;
71941;SDS011;59997;53.300;-6.260;2023-01-06T08:01:43;6.90;;;0.37;;
71941;SDS011;59997;53.300;-6.260;2023-01-06T08:04:08;5.50;;;0.33;;
71941;SDS011;59997;53.300;-6.260;2023-01-06T08:06:34;2.67;;;0.30;;
71941;SDS011;59997;53.300;-6.260;2023-01-06T08:09:00;3.33;;;0.20;;
71941;SDS011;59997;53.300;-6.260;2023-01-06T08:11:26;4.78;;;0.35;;
71941;SDS011;59997;53.300;-6.260;2023-01-06T08:13:51;5.63;;;0.37;;
71941;SDS011;59997;53.300;-6.260;2023-01-06T08:16:17;4.10;;;0.30;;
71941;SDS011;59997;53.300;-6.260;2023-01-06T08:18:42;7.33;;;0.50;;
71941;SDS011;59997;53.300;-6.260;2023-01-06T08:21:08;5.53;;;0.40;;
71941;SDS011;59997;53.300;-6.260;2023-01-06T08:23:35;2.23;;;0.20;;
71941;SDS011;59997;53.300;-6.260;2023-01-06T08:26:08;3.30;;;0.30;;
71941;SDS011;59997;53.300;-6.260;2023-01-06T08:28:35;4.90;;;0.30;;
71941;SDS011;59997;53.300;-6.260;2023-01-06T08:31:01;4.80;;;0.30;;
71941;SDS011;59997;53.300;-6.260;2023-01-06T08:33:27;4.68;;;0.38;;
71941;SDS011;59997;53.300;-6.260;2023-01-06T08:35:57;4.95;;;0.50;;
71941;SDS011;59997;53.300;-6.260;2023-01-06T08:38:24;4.20;;;0.60;;
71941;SDS011;59997;53.300;-6.260;2023-01-06T08:40:52;2.80;;;0.60;;
71941;SDS011;59997;53.300;-6.260;2023-01-06T08:43:19;5.32;;;0.40;;
71941;SDS011;59997;53.300;-6.260;2023-01-06T08:45:44;6.30;;;1.20;;
71941;SDS011;59997;53.300;-6.260;2023-01-06T08:48:10;12.77;;;3.80;;
71941;SDS011;59997;53.300;-6.260;2023-01-06T08:50:37;48.75;;;17.38;;
71941;SDS011;59997;53.300;-6.260;2023-01-06T08:53:03;20.20;;;8.37;;
71941;SDS011;59997;53.300;-6.260;2023-01-06T08:55:29;12.68;;;3.83;;
71941;SDS011;59997;53.300;-6.260;2023-01-06T08:57:54;23.57;;;8.37;;
71941;SDS011;59997;53.300;-6.260;2023-01-06T09:00:20;68.85;;;17.50;;
71941;SDS011;59997;53.300;-6.260;2023-01-06T09:02:45;63.33;;;18.40;;
71941;SDS011;59997;53.300;-6.260;2023-01-06T09:05:11;58.13;;;12.27;;
71941;SDS011;59997;53.300;-6.260;2023-01-06T09:07:36;22.02;;;4.40;;
71941;SDS011;59997;53.300;-6.260;2023-01-06T09:10:02;35.63;;;11.63;;
71941;SDS011;59997;53.300;-6.260;2023-01-06T09:12:28;12.13;;;3.10;;
71941;SDS011;59997;53.300;-6.260;2023-01-06T09:14:54;9.00;;;1.13;;
71941;SDS011;59997;53.300;-6.260;2023-01-06T09:17:19;10.07;;;2.07;;
71941;SDS011;59997;53.300;-6.260;2023-01-06T09:19:45;8.95;;;1.50;;
71941;SDS011;59997;53.300;-6.260;2023-01-06T09:22:10;7.33;;;1.30;;
71941;SDS011;59997;53.300;-6.260;2023-01-06T09:24:36;9.23;;;1.03;;
71941;SDS011;59997;53.300;-6.260;2023-01-06T09:27:01;13.10;;;0.93;;
71941;SDS011;59997;53.300;-6.260;2023-01-06T09:29:27;10.63;;;0.82;;
71941;SDS011;59997;53.300;-6.260;2023-01-06T09:31:52;7.60;;;0.70;;
71941;SDS011;59997;53.300;-6.260;2023-01-06T09:34:18;5.70;;;0.60;;
71941;SDS011;59997;53.300;-6.260;2023-01-06T09:36:43;9.73;;;0.70;;
71941;SDS011;59997;53.300;-6.260;2023-01-06T09:39:09;6.77;;;0.67;;
71941;SDS011;59997;53.300;-6.260;2023-01-06T09:44:27;5.67;;;0.40;;
71941;SDS011;59997;53.300;-6.260;2023-01-06T09:46:55;4.20;;;0.50;;
71941;SDS011;59997;53.300;-6.260;2023-01-06T09:51:54;5.03;;;0.38;;
71941;SDS011;59997;53.300;-6.260;2023-01-06T09:54:31;7.05;;;0.80;;
71941;SDS011;59997;53.300;-6.260;2023-01-06T09:57:17;6.87;;;0.70;;
71941;SDS011;59997;53.300;-6.260;2023-01-06T09:59:51;5.43;;;0.50;;
71941;SDS011;59997;53.300;-6.260;2023-01-06T10:02:27;9.70;;;0.75;;
71941;SDS011;59997;53.300;-6.260;2023-01-06T10:04:56;7.05;;;0.77;;
71941;SDS011;59997;53.300;-6.260;2023-01-06T10:08:05;7.73;;;1.03;;
71941;SDS011;59997;53.300;-6.260;2023-01-06T10:11:14;9.35;;;0.90;;
71941;SDS011;59997;53.300;-6.260;2023-01-06T10:23:49;3.00;;;0.60;;
71941;SDS011;59997;53.300;-6.260;2023-01-06T10:26:27;9.18;;;0.80;;
71941;SDS011;59997;53.300;-6.260;2023-01-06T10:28:56;5.80;;;0.43;;
71941;SDS011;59997;53.300;-6.260;2023-01-06T10:31:27;9.35;;;0.70;;
71941;SDS011;59997;53.300;-6.260;2023-01-06T10:33:58;5.93;;;0.57;;
71941;SDS011;59997;53.300;-6.260;2023-01-06T10:36:32;3.75;;;0.50;;
71941;SDS011;59997;53.300;-6.260;2023-01-06T10:39:04;10.82;;;0.60;;
71941;SDS011;59997;53.300;-6.260;2023-01-06T10:41:46;8.70;;;0.70;;
71941;SDS011;59997;53.300;-6.260;2023-01-06T10:44:41;4.13;;;0.43;;
71941;SDS011;59997;53.300;-6.260;2023-01-06T10:47:08;7.10;;;0.52;;
71941;SDS011;59997;53.300;-6.260;2023-01-06T10:49:47;7.67;;;0.97;;
71941;SDS011;59997;53.300;-6.260;2023-01-06T10:52:13;6.70;;;0.80;;
71941;SDS011;59997;53.300;-6.260;2023-01-06T10:54:39;9.20;;;1.10;;
71941;SDS011;59997;53.300;-6.260;2023-01-06T10:57:09;7.20;;;0.70;;
71941;SDS011;59997;53.300;-6.260;2023-01-06T11:02:40;6.07;;;0.40;;
71941;SDS011;59997;53.300;-6.260;2023-01-06T11:05:11;10.15;;;1.20;;
71941;SDS011;59997;53.300;-6.260;2023-01-06T11:07:43;4.77;;;0.37;;
71941;SDS011;59997;53.300;-6.260;2023-01-06T11:10:21;8.02;;;0.68;;
71941;SDS011;59997;53.300;-6.260;2023-01-06T11:12:56;8.38;;;0.75;;
71941;SDS011;59997;53.300;-6.260;2023-01-06T11:15:24;7.63;;;1.02;;
71941;SDS011;59997;53.300;-6.260;2023-01-06T11:17:59;3.28;;;0.30;;
71941;SDS011;59997;53.300;-6.260;2023-01-06T11:22:54;7.40;;;0.90;;
71941;SDS011;59997;53.300;-6.260;2023-01-06T11:25:36;8.50;;;0.80;;
71941;SDS011;59997;53.300;-6.260;2023-01-06T11:30:42;11.97;;;1.80;;
71941;SDS011;59997;53.300;-6.260;2023-01-06T11:33:20;9.48;;;1.45;;
71941;SDS011;59997;53.300;-6.260;2023-01-06T11:35:48;10.60;;;1.85;;
71941;SDS011;59997;53.300;-6.260;2023-01-06T11:38:15;10.07;;;1.42;;
71941;SDS011;59997;53.300;-6.260;2023-01-06T11:40:42;14.15;;;2.25;;
71941;SDS011;59997;53.300;-6.260;2023-01-06T11:43:33;10.40;;;1.27;;
71941;SDS011;59997;53.300;-6.260;2023-01-06T11:45:59;6.47;;;1.35;;
71941;SDS011;59997;53.300;-6.260;2023-01-06T11:48:30;11.65;;;3.38;;
71941;SDS011;59997;53.300;-6.260;2023-01-06T11:51:01;5.93;;;0.77;;
71941;SDS011;59997;53.300;-6.260;2023-01-06T11:53:30;5.90;;;0.65;;
71941;SDS011;59997;53.300;-6.260;2023-01-06T12:04:05;10.45;;;1.10;;
71941;SDS011;59997;53.300;-6.260;2023-01-06T12:06:50;6.47;;;0.70;;
71941;SDS011;59997;53.300;-6.260;2023-01-06T12:09:24;11.57;;;1.07;;
71941;SDS011;59997;53.300;-6.260;2023-01-06T12:11:55;7.07;;;0.80;;
71941;SDS011;59997;53.300;-6.260;2023-01-06T12:14:29;7.68;;;1.20;;
71941;SDS011;59997;53.300;-6.260;2023-01-06T12:19:43;9.00;;;0.70;;
71941;SDS011;59997;53.300;-6.260;2023-01-06T12:22:37;6.70;;;0.93;;
71941;SDS011;59997;53.300;-6.260;2023-01-06T12:25:03;6.07;;;0.73;;
71941;SDS011;59997;53.300;-6.260;2023-01-06T12:27:36;12.55;;;2.08;;
71941;SDS011;59997;53.300;-6.260;2023-01-06T12:30:15;5.53;;;0.70;;
71941;SDS011;59997;53.300;-6.260;2023-01-06T12:32:45;8.63;;;0.63;;
71941;SDS011;59997;53.300;-6.260;2023-01-06T12:35:17;6.90;;;0.60;;
71941;SDS011;59997;53.300;-6.260;2023-01-06T12:37:48;12.15;;;0.93;;
71941;SDS011;59997;53.300;-6.260;2023-01-06T12:48:39;8.33;;;0.70;;
71941;SDS011;59997;53.300;-6.260;2023-01-06T12:51:17;4.85;;;0.70;;
71941;SDS011;59997;53.300;-6.260;2023-01-06T12:53:56;4.85;;;0.70;;
71941;SDS011;59997;53.300;-6.260;2023-01-06T13:01:45;7.97;;;1.00;;
71941;SDS011;59997;53.300;-6.260;2023-01-06T13:13:17;6.40;;;0.60;;
71941;SDS011;59997;53.300;-6.260;2023-01-06T13:15:55;9.67;;;0.80;;
71941;SDS011;59997;53.300;-6.260;2023-01-06T13:29:08;8.75;;;0.73;;
71941;SDS011;59997;53.300;-6.260;2023-01-06T13:37:24;9.63;;;0.90;;
71941;SDS011;59997;53.300;-6.260;2023-01-06T13:42:38;9.98;;;1.35;;
71941;SDS011;59997;53.300;-6.260;2023-01-06T13:45:11;6.55;;;0.57;;
71941;SDS011;59997;53.300;-6.260;2023-01-06T13:47:41;5.80;;;0.73;;
71941;SDS011;59997;53.300;-6.260;2023-01-06T13:50:06;6.10;;;0.55;;
71941;SDS011;59997;53.300;-6.260;2023-01-06T13:52:38;4.72;;;0.50;;
71941;SDS011;59997;53.300;-6.260;2023-01-06T13:57:53;9.52;;;0.60;;
71941;SDS011;59997;53.300;-6.260;2023-01-06T14:00:22;10.30;;;1.70;;
71941;SDS011;59997;53.300;-6.260;2023-01-06T14:13:03;9.30;;;1.00;;
71941;SDS011;59997;53.300;-6.260;2023-01-06T14:15:32;7.40;;;0.65;;
71941;SDS011;59997;53.300;-6.260;2023-01-06T14:17:59;7.40;;;1.00;;
71941;SDS011;59997;53.300;-6.260;2023-01-06T14:20:33;11.52;;;0.88;;
71941;SDS011;59997;53.300;-6.260;2023-01-06T14:25:27;8.47;;;0.90;;
71941;SDS011;59997;53.300;-6.260;2023-01-06T14:30:30;11.23;;;1.20;;
71941;SDS011;59997;53.300;-6.260;2023-01-06T14:32:58;9.60;;;1.60;;
71941;SDS011;59997;53.300;-6.260;2023-01-06T14:35:36;8.90;;;0.80;;
71941;SDS011;59997;53.300;-6.260;2023-01-06T14:38:24;7.82;;;0.88;;
71941;SDS011;59997;53.300;-6.260;2023-01-06T14:46:06;8.38;;;1.70;;
71941;SDS011;59997;53.300;-6.260;2023-01-06T14:48:40;6.68;;;0.57;;
71941;SDS011;59997;53.300;-6.260;2023-01-06T14:51:11;9.70;;;1.20;;
71941;SDS011;59997;53.300;-6.260;2023-01-06T14:53:44;6.72;;;0.88;;
71941;SDS011;59997;53.300;-6.260;2023-01-06T14:56:18;9.23;;;1.10;;
71941;SDS011;59997;53.300;-6.260;2023-01-06T14:58:45;11.05;;;1.35;;
71941;SDS011;59997;53.300;-6.260;2023-01-06T15:01:21;10.43;;;1.05;;
71941;SDS011;59997;53.300;-6.260;2023-01-06T15:03:58;7.70;;;0.73;;
71941;SDS011;59997;53.300;-6.260;2023-01-06T15:06:26;8.25;;;0.60;;
71941;SDS011;59997;53.300;-6.260;2023-01-06T15:08:53;7.63;;;0.70;;
71941;SDS011;59997;53.300;-6.260;2023-01-06T15:11:38;13.15;;;0.90;;
71941;SDS011;59997;53.300;-6.260;2023-01-06T15:14:04;8.00;;;0.65;;
71941;SDS011;59997;53.300;-6.260;2023-01-06T15:16:34;8.40;;;1.00;;
71941;SDS011;59997;53.300;-6.260;2023-01-06T15:19:04;6.82;;;0.88;;
71941;SDS011;59997;53.300;-6.260;2023-01-06T15:21:36;7.13;;;0.80;;
71941;SDS011;59997;53.300;-6.260;2023-01-06T15:24:03;8.80;;;1.35;;
71941;SDS011;59997;53.300;-6.260;2023-01-06T15:26:29;11.93;;;1.52;;
71941;SDS011;59997;53.300;-6.260;2023-01-06T15:31:27;8.80;;;1.50;;
71941;SDS011;59997;53.300;-6.260;2023-01-06T15:33:55;9.98;;;1.17;;
71941;SDS011;59997;53.300;-6.260;2023-01-06T15:36:22;5.38;;;0.82;;
71941;SDS011;59997;53.300;-6.260;2023-01-06T15:38:48;7.20;;;0.70;;
71941;SDS011;59997;53.300;-6.260;2023-01-06T15:41:15;7.07;;;0.90;;
71941;SDS011;59997;53.300;-6.260;2023-01-06T15:43:57;9.67;;;1.37;;
71941;SDS011;59997;53.300;-6.260;2023-01-06T15:46:23;12.55;;;0.85;;
71941;SDS011;59997;53.300;-6.260;2023-01-06T15:48:51;5.18;;;0.75;;
71941;SDS011;59997;53.300;-6.260;2023-01-06T15:51:17;11.43;;;1.02;;
71941;SDS011;59997;53.300;-6.260;2023-01-06T15:53:45;8.43;;;0.80;;
71941;SDS011;59997;53.300;-6.260;2023-01-06T15:56:22;5.30;;;0.90;;
71941;SDS011;59997;53.300;-6.260;2023-01-06T15:58:51;6.93;;;1.35;;
71941;SDS011;59997;53.300;-6.260;2023-01-06T16:01:19;5.35;;;0.90;;
71941;SDS011;59997;53.300;-6.260;2023-01-06T16:03:50;5.45;;;0.88;;
71941;SDS011;59997;53.300;-6.260;2023-01-06T16:06:24;7.85;;;1.20;;
71941;SDS011;59997;53.300;-6.260;2023-01-06T16:08:50;6.47;;;1.07;;
71941;SDS011;59997;53.300;-6.260;2023-01-06T16:13:42;9.17;;;1.00;;
71941;SDS011;59997;53.300;-6.260;2023-01-06T16:16:22;6.95;;;0.93;;
71941;SDS011;59997;53.300;-6.260;2023-01-06T16:18:54;7.75;;;0.80;;
71941;SDS011;59997;53.300;-6.260;2023-01-06T16:21:24;11.00;;;1.33;;
71941;SDS011;59997;53.300;-6.260;2023-01-06T16:23:53;7.05;;;0.95;;
71941;SDS011;59997;53.300;-6.260;2023-01-06T16:26:22;10.32;;;1.50;;
71941;SDS011;59997;53.300;-6.260;2023-01-06T16:28:55;8.43;;;0.80;;
71941;SDS011;59997;53.300;-6.260;2023-01-06T16:31:32;6.30;;;0.90;;
71941;SDS011;59997;53.300;-6.260;2023-01-06T16:36:46;7.75;;;1.35;;
71941;SDS011;59997;53.300;-6.260;2023-01-06T16:39:12;7.80;;;1.13;;
71941;SDS011;59997;53.300;-6.260;2023-01-06T16:41:39;10.20;;;1.23;;
71941;SDS011;59997;53.300;-6.260;2023-01-06T16:44:26;7.47;;;1.20;;
71941;SDS011;59997;53.300;-6.260;2023-01-06T16:46:55;8.55;;;1.25;;
71941;SDS011;59997;53.300;-6.260;2023-01-06T16:49:27;9.40;;;1.00;;
71941;SDS011;59997;53.300;-6.260;2023-01-06T16:51:54;6.93;;;1.10;;
71941;SDS011;59997;53.300;-6.260;2023-01-06T16:54:19;7.22;;;0.88;;
71941;SDS011;59997;53.300;-6.260;2023-01-06T16:56:45;7.23;;;1.50;;
71941;SDS011;59997;53.300;-6.260;2023-01-06T16:59:15;9.43;;;1.33;;
71941;SDS011;59997;53.300;-6.260;2023-01-06T17:01:42;8.07;;;1.20;;
71941;SDS011;59997;53.300;-6.260;2023-01-06T17:04:08;11.77;;;1.55;;
71941;SDS011;59997;53.300;-6.260;2023-01-06T17:06:36;8.77;;;1.67;;
71941;SDS011;59997;53.300;-6.260;2023-01-06T17:09:08;8.57;;;1.50;;
71941;SDS011;59997;53.300;-6.260;2023-01-06T17:11:42;8.05;;;0.95;;
71941;SDS011;59997;53.300;-6.260;2023-01-06T17:14:15;8.55;;;1.48;;
71941;SDS011;59997;53.300;-6.260;2023-01-06T17:16:42;8.60;;;1.37;;
71941;SDS011;59997;53.300;-6.260;2023-01-06T17:19:21;7.30;;;0.82;;
71941;SDS011;59997;53.300;-6.260;2023-01-06T17:21:54;9.20;;;1.48;;